Airfield :







YOU CAN JOIN US ON...

 
LOGIN :

Register | Disclaimer

   EN    FR    IT 

 









Legend :    VFR   Marginal VFR   IFR   Intensive IFR   Very Intensive IFR
Visi :
Ceiling :
>= 8 km
>= 3000ft
5 to 8 km
1000 to 3000 ft
1500m to 5 km
500 to 1000 ft
800 to 1500m
200 to 500 ft
< 800m
< 200 ft
Symbols :   Thunderstorms  Fog  Heavy snow  Heavy precipitations  Wind > 20 kt







- Airport Elevation : 68 ft
- IATA code : YFC


CYFC - Fredericton

CURRENT METAR :
  • 222317Z AUTO 16007KT 9SM FEW055 SCT086 SCT110 BKN200 21/ A2972 RMK LTNG DIST E TD MISG SLP067 DENSITY ALT 900FT

EXPIRED METARs :
  • 222300Z AUTO VRB02KT 9SM RA FEW031 BKN049 BKN085 OVC110 21/21 A2972 RMK LTNG DIST NE SLP066 DENSITY ALT 1000FT
  • 222254Z AUTO VRB02KT 6SM RA BR FEW025 BKN041 BKN080 OVC099 21/21 A2973 RMK SLP068 DENSITY ALT 1000FT
  • 222234Z AUTO 33006KT 310V010 6SM RA BR OVC025 21/20 A2972 RMK LTNG DIST NE SLP067 DENSITY ALT 1000FT
  • 222227Z AUTO 36008KT 300V010 6SM +RA BR BKN025 BKN031 22/20 A2972 RMK LTNG DIST NE SLP065 DENSITY ALT 1100FT
  • 222205Z AUTO 29009KT 200V310 9SM FEW027 SCT034 BKN230 25/21 A2972 RMK LTNG DIST N NE SLP064 DENSITY ALT 1500FT
  • 222150Z AUTO 21007KT 170V240 9SM VCTS SCT029 BKN038 BKN049 BKN080 26/22 A2971 RMK LTNG DIST N NW SLP062 DENSITY ALT 1500FT
  • 222148Z AUTO 22006KT 160V240 9SM -RA VCTS SCT029 BKN040 OVC100 26/22 A2971 RMK LTNG DIST N NW SLP063 DENSITY ALT 1500FT
  • 222137Z AUTO 18005KT 9SM SCT038 SCT049 BKN065 OVC110 27/21 A2970 RMK LTNG DIST N NW SLP060 DENSITY ALT 1600FT
  • 222127Z AUTO 17005KT 9SM -RA SCT039 SCT065 BKN080 OVC100 27/22 A2971 RMK LTNG DIST NW SLP061 DENSITY ALT 1600FT
  • 222100Z AUTO 21004KT 190V250 9SM SCT100 27/22 A2971 RMK LTNG DIST W NW SLP062 DENSITY ALT 1700FT

TAF TAF CYFC
Valid from the 23 at 00:00 until the 23 at 12:00 UTC


222338Z 2300/2312 VRB03KT P6SM BKN050
TEMPO 2300/2302 5SM -SHRA BR BKN020
FM230200 23005KT P6SM SCT010 BKN025
TEMPO 2302/2306 BKN010
BECMG 2310/2312 26008KT RMK FCST BASED ON AUTO OBS. NXT FCST BY 230600Z
No reported NOTAMs for that airfield.



MET'MAP, your aeronautical weather chart ! - Copyright ORBIFLY December 2007 - Disclaimer

ORBIFLY MET'MAP TEAM :

Programming & Development : Alexandra Zaïnal
Concept & Development : Baudouin d'Aumeries
Co-Development & Prog : Marc-Olivier Méhu
Technical & hardware support : Manuel Goepfert

Contact : metmap@orbifly.com




SOURCES & CREDITS :

   NOAA